Time;durP1;ratioP1;P1;durP2;ratioP2;P2;SDS_P1;SDS_P2;PMS_P1;PMS_P2;Temp;Humidity;BMP_temperature;BMP_pressure;BME280_temperature;BME280_humidity;BME280_pressure;Samples;Min_cycle;Max_cycle;Signal;HPM_P1;HPM_P2
2021/04/03 00:02:21;;;;;;;31.23;8.25;;;8.90;99.90;;;;;;5065516;28;20106;-70
2021/04/03 00:04:47;;;;;;;22.48;7.20;;;8.90;99.90;;;;;;5067282;28;20032;-70
2021/04/03 00:07:13;;;;;;;20.35;7.55;;;8.90;99.90;;;;;;5071871;28;20086;-70
2021/04/03 00:09:39;;;;;;;22.23;7.25;;;9.00;99.90;;;;;;5067445;28;20024;-69
2021/04/03 00:12:07;;;;;;;19.17;6.18;;;9.00;99.90;;;;;;5069236;28;20051;-70
2021/04/03 00:14:32;;;;;;;29.90;7.22;;;8.90;99.90;;;;;;5070910;28;20024;-70
2021/04/03 00:16:58;;;;;;;20.50;7.07;;;9.00;99.90;;;;;;5071267;28;20536;-70
2021/04/03 00:19:23;;;;;;;30.52;7.82;;;9.00;99.90;;;;;;5069376;28;20029;-70
2021/04/03 00:21:49;;;;;;;28.95;8.63;;;8.90;99.90;;;;;;5068733;28;20024;-70
2021/04/03 00:24:16;;;;;;;28.30;7.82;;;8.90;99.90;;;;;;5068405;28;20127;-70
2021/04/03 00:26:41;;;;;;;25.00;7.57;;;9.00;99.90;;;;;;5073674;28;20052;-70
2021/04/03 00:29:07;;;;;;;26.33;7.28;;;8.90;99.90;;;;;;5069300;28;20056;-70
2021/04/03 00:31:33;;;;;;;27.48;7.22;;;8.90;99.90;;;;;;5076484;28;20008;-70
2021/04/03 00:33:58;;;;;;;28.35;7.07;;;8.90;99.90;;;;;;5069228;28;20063;-70
2021/04/03 00:36:24;;;;;;;20.73;7.28;;;8.90;99.90;;;;;;5066026;28;20031;-70
2021/04/03 00:38:50;;;;;;;31.55;7.57;;;9.00;99.90;;;;;;5068665;28;20040;-70
2021/04/03 00:41:15;;;;;;;27.58;7.50;;;8.90;99.90;;;;;;5070358;28;20028;-69
2021/04/03 00:43:41;;;;;;;22.77;7.20;;;8.90;99.90;;;;;;5065288;28;20044;-69
2021/04/03 00:46:06;;;;;;;30.85;7.63;;;8.90;99.90;;;;;;5065161;28;20024;-69
2021/04/03 00:48:32;;;;;;;21.73;6.78;;;8.90;99.90;;;;;;5072822;28;20055;-70
2021/04/03 00:50:58;;;;;;;27.92;7.05;;;8.90;99.90;;;;;;5062131;28;20492;-69
2021/04/03 00:53:27;;;;;;;26.23;7.25;;;8.80;99.90;;;;;;5071617;28;20477;-70
2021/04/03 00:55:55;;;;;;;32.72;8.27;;;8.90;99.90;;;;;;5066309;28;20029;-69
2021/04/03 00:58:21;;;;;;;22.13;7.30;;;8.90;99.90;;;;;;5064545;28;20060;-69
2021/04/03 01:00:47;;;;;;;26.67;7.72;;;8.90;99.90;;;;;;5069243;28;20032;-69
2021/04/03 01:03:13;;;;;;;23.17;7.47;;;8.90;99.90;;;;;;5069546;28;20037;-69
2021/04/03 01:05:38;;;;;;;33.25;7.47;;;8.90;99.90;;;;;;5070702;28;20490;-69
2021/04/03 01:08:05;;;;;;;24.65;8.13;;;8.90;99.90;;;;;;5066854;28;20052;-69
2021/04/03 01:10:43;;;;;;;28.20;8.35;;;8.80;99.90;;;;;;5072089;28;20117;-70
2021/04/03 01:13:46;;;;;;;27.00;8.95;;;8.80;99.90;;;;;;5071602;28;20024;-70
2021/04/03 01:16:23;;;;;;;23.25;8.23;;;8.80;99.90;;;;;;5065758;28;20048;-70
2021/04/03 01:18:59;;;;;;;24.70;6.88;;;8.80;99.90;;;;;;5068249;28;20095;-69
2021/04/03 01:21:52;;;;;;;20.33;7.38;;;8.80;99.90;;;;;;5067218;28;20024;-69
2021/04/03 01:24:42;;;;;;;24.55;6.78;;;8.70;99.90;;;;;;5062441;28;20032;-69
2021/04/03 01:27:13;;;;;;;31.35;8.27;;;8.70;99.90;;;;;;5064653;28;20542;-69
2021/04/03 01:29:51;;;;;;;29.88;8.10;;;8.60;99.90;;;;;;5066952;28;20024;-69
2021/04/03 01:32:22;;;;;;;27.88;6.97;;;8.60;99.90;;;;;;5071721;28;20082;-69
2021/04/03 01:34:48;;;;;;;26.88;6.85;;;8.60;99.90;;;;;;5063470;28;20020;-69
2021/04/03 01:37:19;;;;;;;18.45;5.65;;;8.50;99.90;;;;;;5070462;28;20024;-69
2021/04/03 01:39:49;;;;;;;18.35;5.38;;;8.50;99.90;;;;;;5065791;28;20045;-69
2021/04/03 01:42:19;;;;;;;21.77;5.85;;;8.40;99.90;;;;;;5073608;28;20028;-69
2021/04/03 01:44:51;;;;;;;23.60;5.03;;;8.40;99.90;;;;;;5065929;28;20029;-70
2021/04/03 01:47:19;;;;;;;;;;;8.30;99.90;;;;;;5065000;28;20429;-69
2021/04/03 01:49:48;;;;;;;24.92;3.95;;;8.20;99.90;;;;;;5066493;28;19912;-70
2021/04/03 01:52:17;;;;;;;17.65;3.60;;;8.30;99.90;;;;;;5066846;28;20021;-70
2021/04/03 01:54:44;;;;;;;19.15;3.78;;;8.20;99.90;;;;;;5065292;28;20025;-69
2021/04/03 01:57:10;;;;;;;16.23;3.45;;;8.10;99.90;;;;;;5065015;28;20069;-69
2021/04/03 01:59:37;;;;;;;26.13;4.45;;;8.10;99.90;;;;;;5067309;28;20507;-69
2021/04/03 02:02:03;;;;;;;24.95;3.67;;;8.10;99.90;;;;;;5066316;28;20063;-69
2021/04/03 02:04:29;;;;;;;18.60;3.58;;;8.10;99.90;;;;;;5067819;28;20425;-69
2021/04/03 02:06:56;;;;;;;23.80;3.33;;;8.10;99.90;;;;;;5064721;28;20108;-69
2021/04/03 02:09:23;;;;;;;19.85;3.30;;;8.10;99.90;;;;;;5059493;28;20076;-69
2021/04/03 02:11:51;;;;;;;20.88;3.50;;;8.10;99.90;;;;;;5064650;28;20024;-69
2021/04/03 02:14:18;;;;;;;18.63;3.58;;;8.10;99.90;;;;;;5068758;28;20124;-69
2021/04/03 02:16:45;;;;;;;24.85;3.35;;;8.20;99.90;;;;;;5067860;28;20024;-69
2021/04/03 02:19:12;;;;;;;19.20;3.40;;;8.20;99.90;;;;;;5070763;28;20032;-69
2021/04/03 02:21:41;;;;;;;18.13;4.10;;;8.30;99.90;;;;;;5064755;28;20020;-69
2021/04/03 02:24:07;;;;;;;23.10;3.03;;;8.20;99.90;;;;;;5073326;28;20037;-69
2021/04/03 02:26:35;;;;;;;16.95;3.30;;;8.30;99.90;;;;;;5069972;28;20021;-69
2021/04/03 02:29:01;;;;;;;13.50;3.10;;;8.20;99.90;;;;;;5064288;28;20032;-69
2021/04/03 02:31:28;;;;;;;24.13;4.13;;;8.30;99.90;;;;;;5069968;28;20024;-69
2021/04/03 02:33:54;;;;;;;19.23;4.70;;;8.30;99.90;;;;;;5070029;28;20499;-69
2021/04/03 02:36:20;;;;;;;17.48;3.70;;;8.30;99.90;;;;;;5070382;28;20017;-69
2021/04/03 02:38:47;;;;;;;21.38;3.70;;;8.30;99.90;;;;;;5070170;28;20032;-69
2021/04/03 02:41:15;;;;;;;20.30;3.30;;;8.30;99.90;;;;;;5067726;28;20027;-70
2021/04/03 02:43:50;;;;;;;22.15;3.97;;;8.30;99.90;;;;;;5072085;28;20411;-70
2021/04/03 02:46:39;;;;;;;17.55;4.18;;;8.40;99.90;;;;;;5064674;28;20078;-70
2021/04/03 02:49:11;;;;;;;14.85;3.10;;;8.30;99.90;;;;;;5063814;28;20029;-70
2021/04/03 02:51:44;;;;;;;20.25;4.00;;;8.30;99.90;;;;;;5063397;28;20017;-69
2021/04/03 02:54:12;;;;;;;18.08;3.58;;;8.30;99.90;;;;;;5060232;28;20037;-70
2021/04/03 02:56:41;;;;;;;21.75;3.72;;;8.30;99.90;;;;;;5067000;28;20389;-69
2021/04/03 02:59:23;;;;;;;16.67;3.10;;;8.40;99.90;;;;;;5067300;28;20024;-70
2021/04/03 03:01:52;;;;;;;23.30;3.90;;;8.40;99.90;;;;;;5066661;28;20199;-70
2021/04/03 03:04:19;;;;;;;21.98;3.33;;;8.40;99.90;;;;;;5060829;28;20021;-70
2021/04/03 03:06:48;;;;;;;12.27;2.58;;;8.30;99.90;;;;;;5072743;28;20063;-70
2021/04/03 03:09:15;;;;;;;16.35;3.72;;;8.30;99.90;;;;;;5060959;28;20033;-70
2021/04/03 03:11:47;;;;;;;17.65;3.50;;;8.20;99.90;;;;;;5070554;28;20411;-69
2021/04/03 03:14:14;;;;;;;18.40;3.50;;;8.30;99.90;;;;;;5064782;28;20262;-68
2021/04/03 03:16:41;;;;;;;19.98;3.67;;;8.40;99.90;;;;;;5068687;28;20517;-70
2021/04/03 03:19:11;;;;;;;17.83;3.47;;;8.40;99.90;;;;;;5065835;28;20041;-69
2021/04/03 03:21:38;;;;;;;22.58;3.58;;;8.40;99.90;;;;;;5068269;28;20021;-70
2021/04/03 03:24:06;;;;;;;20.85;3.97;;;8.40;99.90;;;;;;5070894;28;20419;-70
2021/04/03 03:26:34;;;;;;;20.35;2.63;;;8.30;99.90;;;;;;5063450;28;20031;-70
2021/04/03 03:29:02;;;;;;;24.58;3.67;;;8.30;99.90;;;;;;5062277;28;20029;-70
2021/04/03 03:31:27;;;;;;;19.08;3.38;;;8.40;99.90;;;;;;5056646;28;20099;-70
2021/04/03 03:33:53;;;;;;;16.30;3.45;;;8.50;99.90;;;;;;5067558;28;20040;-69
2021/04/03 03:36:20;;;;;;;21.77;3.53;;;8.30;99.90;;;;;;5069358;28;20037;-69
2021/04/03 03:38:46;;;;;;;20.70;4.13;;;8.40;99.90;;;;;;5063220;28;20043;-69
2021/04/03 03:41:13;;;;;;;21.45;3.58;;;8.40;99.90;;;;;;5062903;28;20488;-69
2021/04/03 03:43:39;;;;;;;24.23;4.68;;;8.40;99.90;;;;;;5067067;28;20511;-70
2021/04/03 03:46:08;;;;;;;15.35;3.30;;;8.50;99.90;;;;;;5061604;28;20461;-70
2021/04/03 03:48:34;;;;;;;21.35;3.35;;;8.50;99.90;;;;;;5063859;28;20079;-70
2021/04/03 03:51:00;;;;;;;17.42;3.00;;;8.40;99.90;;;;;;5059069;28;20029;-69
2021/04/03 03:53:25;;;;;;;15.55;3.60;;;8.40;99.90;;;;;;5065343;28;20442;-69
2021/04/03 03:55:52;;;;;;;15.43;3.22;;;8.40;99.90;;;;;;5061136;28;20025;-69
2021/04/03 03:58:18;;;;;;;21.45;3.60;;;8.50;99.90;;;;;;5064417;28;20048;-69
2021/04/03 04:00:43;;;;;;;23.63;3.70;;;8.50;99.90;;;;;;5065144;28;20028;-69
2021/04/03 04:03:09;;;;;;;18.98;3.15;;;8.50;99.90;;;;;;5065859;28;20023;-69
2021/04/03 04:05:35;;;;;;;24.17;4.28;;;8.60;99.90;;;;;;5063373;28;20044;-69
2021/04/03 04:08:01;;;;;;;27.55;3.22;;;8.60;99.90;;;;;;5064325;28;20036;-69
2021/04/03 04:10:28;;;;;;;20.25;3.50;;;8.50;99.90;;;;;;5065094;28;20384;-69
2021/04/03 04:12:53;;;;;;;28.23;4.20;;;8.50;99.90;;;;;;5060578;28;20082;-69
2021/04/03 04:15:19;;;;;;;21.98;5.03;;;8.60;99.90;;;;;;5061894;28;20024;-69
2021/04/03 04:17:45;;;;;;;34.03;4.18;;;8.60;99.90;;;;;;5062817;28;20065;-69
2021/04/03 04:20:11;;;;;;;23.02;3.97;;;8.50;99.90;;;;;;5064432;28;20032;-69
2021/04/03 04:22:37;;;;;;;23.25;3.58;;;8.60;99.90;;;;;;5057977;28;20018;-69
2021/04/03 04:25:04;;;;;;;25.98;3.72;;;8.40;99.90;;;;;;5063585;28;20496;-69
2021/04/03 04:27:29;;;;;;;24.50;3.40;;;8.50;99.90;;;;;;5065717;28;20123;-69
2021/04/03 04:29:57;;;;;;;22.02;3.33;;;8.50;99.90;;;;;;5069887;28;20099;-69
2021/04/03 04:32:23;;;;;;;17.17;3.80;;;8.50;99.90;;;;;;5066826;28;20368;-69
2021/04/03 04:34:48;;;;;;;16.75;3.58;;;8.50;99.90;;;;;;5070167;28;20039;-69
2021/04/03 04:37:14;;;;;;;22.95;3.63;;;8.50;99.90;;;;;;5067202;28;20489;-69
2021/04/03 04:39:39;;;;;;;25.65;3.97;;;8.40;99.90;;;;;;5064758;28;20483;-69
2021/04/03 04:42:05;;;;;;;20.63;4.45;;;8.50;99.90;;;;;;5059876;28;20432;-69
2021/04/03 04:44:31;;;;;;;15.40;3.92;;;8.40;99.90;;;;;;5063132;28;20473;-69
2021/04/03 04:46:57;;;;;;;17.45;3.70;;;8.40;99.90;;;;;;5065698;28;20466;-69
2021/04/03 04:49:22;;;;;;;19.02;3.53;;;8.50;99.90;;;;;;5072340;28;20064;-69
2021/04/03 04:51:48;;;;;;;24.88;4.47;;;8.50;99.90;;;;;;5067054;28;20036;-69
2021/04/03 04:54:14;;;;;;;18.20;4.07;;;8.50;99.90;;;;;;5068250;28;20037;-70
2021/04/03 04:56:39;;;;;;;18.05;4.03;;;8.50;99.90;;;;;;5064213;28;20030;-69
2021/04/03 04:59:05;;;;;;;19.88;3.40;;;8.50;99.90;;;;;;5069133;28;20066;-70
2021/04/03 05:01:30;;;;;;;18.73;4.35;;;8.50;99.90;;;;;;5067725;28;20358;-69
2021/04/03 05:03:56;;;;;;;29.00;4.38;;;8.40;99.90;;;;;;5071935;28;20043;-70
2021/04/03 05:06:22;;;;;;;15.93;4.18;;;8.40;99.90;;;;;;5060848;28;20047;-70
2021/04/03 05:08:47;;;;;;;18.48;4.60;;;8.40;99.90;;;;;;5063934;28;20075;-70
2021/04/03 05:11:13;;;;;;;24.50;4.53;;;8.40;99.90;;;;;;5070329;28;20023;-70
2021/04/03 05:13:38;;;;;;;27.42;4.53;;;8.40;99.90;;;;;;5072801;28;20365;-69
2021/04/03 05:16:04;;;;;;;18.77;4.15;;;8.20;99.90;;;;;;5069865;28;20489;-69
2021/04/03 05:18:30;;;;;;;20.30;3.92;;;8.20;99.90;;;;;;5065914;28;20534;-69
2021/04/03 05:20:55;;;;;;;26.98;4.82;;;8.30;99.90;;;;;;5072321;28;20498;-69
2021/04/03 05:23:21;;;;;;;19.55;3.90;;;8.40;99.90;;;;;;5069577;28;20037;-69
2021/04/03 05:25:47;;;;;;;21.85;3.90;;;8.40;99.90;;;;;;5067775;28;20156;-69
2021/04/03 05:28:16;;;;;;;27.33;5.05;;;8.30;99.90;;;;;;5069790;28;20017;-69
2021/04/03 05:30:42;;;;;;;21.63;3.85;;;8.30;99.90;;;;;;5067749;28;20024;-70
2021/04/03 05:33:09;;;;;;;19.17;4.22;;;8.20;99.90;;;;;;5070809;28;20051;-69
2021/04/03 05:35:34;;;;;;;23.95;5.13;;;8.20;99.90;;;;;;5066255;28;20029;-69
2021/04/03 05:38:00;;;;;;;23.88;4.03;;;8.40;99.90;;;;;;5070738;28;20041;-69
2021/04/03 05:40:26;;;;;;;23.70;5.00;;;8.40;99.90;;;;;;5068553;28;20396;-69
2021/04/03 05:42:53;;;;;;;23.50;4.53;;;8.50;99.90;;;;;;5069734;28;20106;-69
2021/04/03 05:45:19;;;;;;;18.05;4.35;;;8.40;99.90;;;;;;5068093;28;20032;-69
2021/04/03 05:47:45;;;;;;;19.73;4.20;;;8.40;99.90;;;;;;5063399;28;20040;-70
2021/04/03 05:50:12;;;;;;;23.20;4.20;;;8.40;99.90;;;;;;5064075;28;20389;-69
2021/04/03 05:52:38;;;;;;;23.67;4.25;;;8.40;99.90;;;;;;5072666;28;20021;-70
2021/04/03 05:55:05;;;;;;;25.05;4.10;;;8.40;99.90;;;;;;5061033;28;20025;-70
2021/04/03 05:57:30;;;;;;;22.60;4.55;;;8.50;99.90;;;;;;5065362;28;20017;-70
2021/04/03 05:59:56;;;;;;;19.00;3.83;;;8.50;99.90;;;;;;5067291;28;20553;-70
2021/04/03 06:02:22;;;;;;;20.70;4.20;;;8.50;99.90;;;;;;5063763;28;20021;-70
2021/04/03 06:04:52;;;;;;;27.48;4.20;;;8.50;99.90;;;;;;5061846;28;20025;-70
2021/04/03 06:07:18;;;;;;;24.55;4.15;;;8.50;99.90;;;;;;5069600;28;20029;-70
2021/04/03 06:09:44;;;;;;;21.30;4.65;;;8.60;99.90;;;;;;5065521;28;20461;-70
2021/04/03 06:12:10;;;;;;;23.85;3.83;;;8.60;99.90;;;;;;5063892;28;20073;-70
2021/04/03 06:14:36;;;;;;;25.50;4.45;;;8.60;99.90;;;;;;5066293;28;20103;-70
2021/04/03 06:17:03;;;;;;;30.25;4.80;;;8.60;99.90;;;;;;5065032;28;20056;-69
2021/04/03 06:19:29;;;;;;;21.90;4.20;;;8.60;99.90;;;;;;5066997;28;20043;-69
2021/04/03 06:22:00;;;;;;;30.52;4.50;;;8.60;99.90;;;;;;5070316;28;20124;-69
2021/04/03 06:24:31;;;;;;;21.77;4.20;;;8.50;99.90;;;;;;5067144;28;20039;-70
2021/04/03 06:27:07;;;;;;;22.80;4.70;;;8.60;99.90;;;;;;5065754;28;20040;-69
2021/04/03 06:29:43;;;;;;;26.05;4.72;;;8.50;99.90;;;;;;5069408;28;20028;-69
2021/04/03 06:32:31;;;;;;;26.80;4.97;;;8.60;99.90;;;;;;5065980;28;20028;-69
2021/04/03 06:34:57;;;;;;;23.95;4.53;;;8.60;99.90;;;;;;5069133;28;20020;-69
2021/04/03 06:37:36;;;;;;;33.38;4.95;;;8.60;99.90;;;;;;5066166;28;20426;-69
2021/04/03 06:40:13;;;;;;;24.73;4.78;;;8.70;99.90;;;;;;5068613;28;20487;-69
2021/04/03 06:42:43;;;;;;;25.48;4.68;;;8.80;99.90;;;;;;5067712;28;20021;-69
2021/04/03 06:45:28;;;;;;;17.98;4.35;;;8.80;99.90;;;;;;5059718;28;20447;-69
2021/04/03 06:47:58;;;;;;;28.92;4.93;;;8.90;99.90;;;;;;5065363;28;20028;-69
2021/04/03 06:50:26;;;;;;;25.70;4.22;;;8.80;99.90;;;;;;5070284;28;20024;-69
2021/04/03 06:52:52;;;;;;;29.85;4.80;;;8.90;99.90;;;;;;5061705;28;20037;-69
2021/04/03 06:55:22;;;;;;;23.17;5.57;;;8.90;99.90;;;;;;5064712;28;20028;-69
2021/04/03 06:57:49;;;;;;;23.77;4.28;;;8.90;99.90;;;;;;5063925;28;20028;-69
2021/04/03 07:00:17;;;;;;;25.17;5.28;;;9.00;99.90;;;;;;5063079;28;20371;-70
2021/04/03 07:02:55;;;;;;;28.13;5.82;;;9.00;99.90;;;;;;5064305;28;20021;-69
2021/04/03 07:05:22;;;;;;;30.92;5.15;;;8.80;99.90;;;;;;5067215;28;20485;-70
2021/04/03 07:07:48;;;;;;;35.13;6.45;;;8.80;99.90;;;;;;5071338;28;20056;-69
2021/04/03 07:10:14;;;;;;;23.88;4.85;;;8.90;99.90;;;;;;5059793;28;20447;-70
2021/04/03 07:12:41;;;;;;;26.50;5.03;;;8.90;99.90;;;;;;5066200;28;20542;-70
2021/04/03 07:15:12;;;;;;;31.75;5.15;;;8.90;99.90;;;;;;5066537;28;20029;-70
2021/04/03 07:17:42;;;;;;;27.15;5.70;;;8.90;99.90;;;;;;5061264;28;20066;-70
2021/04/03 07:20:15;;;;;;;30.50;6.18;;;9.00;99.90;;;;;;5066844;28;20557;-70
2021/04/03 07:22:45;;;;;;;38.90;5.47;;;8.90;99.90;;;;;;5062673;28;20028;-69
2021/04/03 07:25:12;;;;;;;28.23;6.30;;;8.80;99.90;;;;;;5062563;28;20025;-70
2021/04/03 07:27:50;;;;;;;30.58;5.70;;;8.90;99.90;;;;;;5064231;28;20029;-70
2021/04/03 07:30:43;;;;;;;26.90;5.03;;;8.80;99.90;;;;;;5062033;28;20029;-70
2021/04/03 07:33:20;;;;;;;38.30;5.82;;;8.80;99.90;;;;;;5064397;28;20045;-70
2021/04/03 07:35:49;;;;;;;35.65;6.35;;;8.80;99.90;;;;;;5064532;28;20036;-70
2021/04/03 07:38:26;;;;;;;33.88;5.45;;;8.70;99.90;;;;;;5063611;28;20036;-70
2021/04/03 07:41:00;;;;;;;36.03;6.07;;;8.80;99.90;;;;;;5066247;28;20377;-70
2021/04/03 07:43:34;;;;;;;34.85;6.18;;;8.90;99.90;;;;;;5070372;28;20119;-70
2021/04/03 07:46:02;;;;;;;31.60;5.38;;;9.00;99.90;;;;;;5068969;28;20131;-70
2021/04/03 07:48:42;;;;;;;33.03;5.82;;;9.10;99.90;;;;;;5069086;28;20066;-69
2021/04/03 07:51:24;;;;;;;30.30;5.88;;;9.10;99.90;;;;;;5067123;28;20040;-70
2021/04/03 07:53:51;;;;;;;37.38;6.57;;;9.10;99.90;;;;;;5062419;28;20037;-71
2021/04/03 07:56:22;;;;;;;36.50;6.30;;;9.10;99.90;;;;;;5066816;28;20109;-70
2021/04/03 07:58:53;;;;;;;29.45;5.22;;;9.10;99.90;;;;;;5064388;28;20147;-70
2021/04/03 08:01:21;;;;;;;23.67;4.80;;;9.10;99.90;;;;;;5068598;28;20528;-71
2021/04/03 08:03:54;;;;;;;33.60;5.65;;;8.90;99.90;;;;;;5064916;28;20115;-71
2021/04/03 08:06:30;;;;;;;28.90;5.00;;;9.00;99.90;;;;;;5065736;28;20017;-70
2021/04/03 08:08:56;;;;;;;36.95;5.50;;;8.90;99.90;;;;;;5065710;28;20028;-70
2021/04/03 08:11:22;;;;;;;28.23;5.32;;;9.10;99.90;;;;;;5067934;28;20118;-70
2021/04/03 08:13:49;;;;;;;29.73;5.95;;;9.00;99.90;;;;;;5068024;28;20029;-71
2021/04/03 08:16:16;;;;;;;29.20;5.57;;;9.00;99.90;;;;;;5064233;28;20029;-71
2021/04/03 08:18:48;;;;;;;25.95;5.40;;;9.00;99.90;;;;;;5067609;28;20021;-70
2021/04/03 08:21:14;;;;;;;28.35;5.40;;;9.00;99.90;;;;;;5070655;28;20103;-70
2021/04/03 08:23:44;;;;;;;31.67;5.30;;;9.00;99.90;;;;;;5061910;28;20025;-70
2021/04/03 08:26:10;;;;;;;26.23;5.90;;;9.10;99.90;;;;;;5066529;28;20032;-71
2021/04/03 08:28:36;;;;;;;30.10;6.45;;;9.10;99.90;;;;;;5069011;28;20021;-70
2021/04/03 08:31:17;;;;;;;32.42;5.43;;;9.10;99.90;;;;;;5072383;28;20024;-69
2021/04/03 08:33:44;;;;;;;36.80;6.07;;;9.30;99.90;;;;;;5067349;28;20575;-68
2021/04/03 08:36:15;;;;;;;31.33;6.07;;;9.30;99.90;;;;;;5067421;28;20104;-69
2021/04/03 08:38:45;;;;;;;23.20;5.55;;;9.30;99.90;;;;;;5070897;28;20059;-69
2021/04/03 08:41:19;;;;;;;32.15;5.93;;;9.40;99.90;;;;;;5064950;28;20021;-69
2021/04/03 08:43:45;;;;;;;31.25;5.97;;;9.40;99.90;;;;;;5065963;28;20039;-69
2021/04/03 08:46:14;;;;;;;26.42;5.32;;;9.40;99.90;;;;;;5072893;28;20031;-69
2021/04/03 08:48:41;;;;;;;31.15;6.60;;;9.50;99.90;;;;;;5072674;28;20070;-69
2021/04/03 08:51:08;;;;;;;30.33;5.72;;;9.50;99.90;;;;;;5070670;28;20381;-69
2021/04/03 08:53:45;;;;;;;30.13;5.78;;;9.50;99.90;;;;;;5067148;28;20025;-69
2021/04/03 08:56:23;;;;;;;35.70;5.70;;;9.50;99.90;;;;;;5067716;28;20082;-69
2021/04/03 08:58:50;;;;;;;31.15;6.10;;;9.60;99.90;;;;;;5067294;28;20040;-69
2021/04/03 09:01:15;;;;;;;32.30;5.65;;;9.70;99.90;;;;;;5066868;28;20380;-69
2021/04/03 09:03:42;;;;;;;32.38;5.35;;;9.70;99.90;;;;;;5067609;28;20020;-69
2021/04/03 09:06:08;;;;;;;32.20;5.90;;;9.70;99.90;;;;;;5066166;28;20440;-70
2021/04/03 09:08:34;;;;;;;34.72;5.50;;;9.80;99.90;;;;;;5067524;28;20048;-70
2021/04/03 09:11:02;;;;;;;32.75;6.60;;;9.90;99.90;;;;;;5066096;28;20381;-70
2021/04/03 09:13:36;;;;;;;32.63;7.18;;;10.10;99.90;;;;;;5061696;28;20017;-70
2021/04/03 09:16:07;;;;;;;41.03;6.10;;;10.10;99.90;;;;;;5061676;28;20123;-70
2021/04/03 09:18:32;;;;;;;31.77;6.95;;;10.10;99.90;;;;;;5064379;28;20480;-70
2021/04/03 09:20:58;;;;;;;27.83;5.28;;;10.10;99.90;;;;;;5068539;28;20041;-70
2021/04/03 09:23:24;;;;;;;31.92;5.47;;;10.30;99.90;;;;;;5065625;28;20034;-69
2021/04/03 09:26:04;;;;;;;27.65;5.60;;;10.30;99.90;;;;;;5064867;28;20029;-69
2021/04/03 09:28:44;;;;;;;22.40;5.18;;;10.30;99.90;;;;;;5068284;28;20032;-70
2021/04/03 09:31:10;;;;;;;31.65;6.40;;;10.30;99.90;;;;;;5071193;28;20020;-70
2021/04/03 09:33:47;;;;;;;28.92;6.20;;;10.40;99.90;;;;;;5063927;28;20055;-71
2021/04/03 09:36:16;;;;;;;33.42;7.30;;;10.60;99.90;;;;;;5068529;28;20028;-70
2021/04/03 09:38:42;;;;;;;26.27;6.53;;;11.00;99.90;;;;;;5066852;28;20024;-72
2021/04/03 09:41:27;;;;;;;26.92;6.47;;;11.20;99.90;;;;;;5072341;28;20037;-72
2021/04/03 09:43:54;;;;;;;29.50;6.45;;;11.10;99.90;;;;;;5070075;28;20056;-70
2021/04/03 09:46:21;;;;;;;32.50;5.63;;;11.20;99.90;;;;;;5063834;28;20029;-71
2021/04/03 09:48:46;;;;;;;26.88;6.22;;;11.40;99.90;;;;;;5066409;28;20029;-71
2021/04/03 09:51:12;;;;;;;34.97;6.35;;;11.30;99.90;;;;;;5068651;28;20702;-70
2021/04/03 09:53:38;;;;;;;30.98;6.00;;;11.20;99.90;;;;;;5066025;28;20071;-70
2021/04/03 09:56:06;;;;;;;29.13;6.50;;;11.20;99.90;;;;;;5067993;28;20044;-70
2021/04/03 09:58:32;;;;;;;27.55;5.38;;;11.20;99.90;;;;;;5066762;28;20056;-70
2021/04/03 10:00:57;;;;;;;23.23;5.60;;;10.90;99.90;;;;;;5064440;28;20052;-70
2021/04/03 10:03:23;;;;;;;24.85;5.28;;;11.00;99.90;;;;;;5065080;28;20373;-70
2021/04/03 10:05:49;;;;;;;25.40;6.13;;;11.20;99.90;;;;;;5068420;28;20044;-71
2021/04/03 10:08:14;;;;;;;23.70;5.47;;;11.50;99.90;;;;;;5069156;28;20032;-69
2021/04/03 10:10:40;;;;;;;36.08;6.28;;;12.10;99.30;;;;;;5063818;28;20029;-70
2021/04/03 10:13:08;;;;;;;27.88;6.00;;;12.40;99.50;;;;;;5058032;28;20029;-70
2021/04/03 10:15:34;;;;;;;27.60;6.38;;;12.00;98.50;;;;;;5065116;28;20021;-70
2021/04/03 10:18:00;;;;;;;25.77;6.18;;;12.30;98.50;;;;;;5062870;28;20100;-70
2021/04/03 10:20:26;;;;;;;25.83;6.25;;;12.30;98.50;;;;;;5065880;28;20181;-70
2021/04/03 10:22:52;;;;;;;23.27;6.35;;;12.30;98.30;;;;;;5063932;28;20526;-70
2021/04/03 10:25:17;;;;;;;34.38;6.45;;;12.10;98.40;;;;;;5067467;28;20029;-69
2021/04/03 10:27:43;;;;;;;33.65;6.85;;;11.90;97.90;;;;;;5067766;28;20028;-70
2021/04/03 10:30:09;;;;;;;28.48;6.13;;;12.00;98.40;;;;;;5064783;28;20025;-70
2021/04/03 10:32:35;;;;;;;23.17;6.13;;;12.00;98.30;;;;;;5067086;28;20079;-70
2021/04/03 10:35:01;;;;;;;26.90;5.57;;;12.10;99.10;;;;;;5075656;28;20016;-70
2021/04/03 10:37:27;;;;;;;28.17;6.50;;;12.00;98.50;;;;;;5061995;28;20037;-70
2021/04/03 10:39:53;;;;;;;32.15;7.20;;;12.30;98.80;;;;;;5069796;28;20428;-70
2021/04/03 10:42:18;;;;;;;29.73;6.20;;;12.40;98.50;;;;;;5066167;28;20276;-70
2021/04/03 10:44:44;;;;;;;23.33;6.40;;;12.30;98.30;;;;;;5064194;28;20024;-70
2021/04/03 10:47:09;;;;;;;26.85;6.03;;;12.20;99.00;;;;;;5064387;28;20024;-70
2021/04/03 10:49:35;;;;;;;27.30;6.25;;;12.20;98.20;;;;;;5064810;28;20029;-71
2021/04/03 10:52:01;;;;;;;26.80;6.20;;;12.10;98.60;;;;;;5066929;28;20021;-70
2021/04/03 10:54:26;;;;;;;25.67;5.85;;;12.30;98.00;;;;;;5070244;28;20032;-72
2021/04/03 10:56:52;;;;;;;13.13;4.88;;;12.30;97.30;;;;;;5060160;28;20115;-71
2021/04/03 10:59:18;;;;;;;30.80;5.75;;;12.10;98.10;;;;;;5068230;28;20036;-71
2021/04/03 11:01:44;;;;;;;25.73;5.95;;;12.30;97.60;;;;;;5064330;28;20033;-71
2021/04/03 11:04:10;;;;;;;25.30;5.80;;;12.40;97.10;;;;;;5067549;28;20388;-71
2021/04/03 11:06:35;;;;;;;22.13;4.53;;;12.70;98.20;;;;;;5058103;28;20465;-71
2021/04/03 11:09:01;;;;;;;15.98;4.43;;;13.00;96.80;;;;;;5066228;28;20087;-71
2021/04/03 11:11:27;;;;;;;20.52;5.00;;;13.10;96.00;;;;;;5067203;28;20476;-71
2021/04/03 11:13:52;;;;;;;20.98;4.88;;;13.10;95.20;;;;;;5068844;28;20081;-71
2021/04/03 11:16:18;;;;;;;19.80;4.72;;;13.10;95.10;;;;;;5046441;28;20720;-71
2021/04/03 11:18:45;;;;;;;14.55;4.40;;;13.30;94.50;;;;;;5059827;28;20037;-71
2021/04/03 11:21:10;;;;;;;17.88;4.43;;;13.50;95.60;;;;;;5062205;28;20052;-71
2021/04/03 11:23:36;;;;;;;16.92;4.93;;;13.50;94.20;;;;;;5064116;28;20048;-71
2021/04/03 11:26:01;;;;;;;18.50;4.72;;;13.40;94.50;;;;;;5062112;28;20025;-71
2021/04/03 11:28:27;;;;;;;17.13;4.43;;;13.50;93.60;;;;;;5060057;28;20411;-71
2021/04/03 11:30:53;;;;;;;20.77;5.00;;;13.50;94.20;;;;;;5059018;28;20035;-71
2021/04/03 11:33:19;;;;;;;24.67;5.03;;;13.70;93.30;;;;;;5062441;28;20035;-71
2021/04/03 11:35:45;;;;;;;18.73;5.00;;;13.70;93.90;;;;;;5060691;28;20031;-71
2021/04/03 11:38:12;;;;;;;12.10;4.15;;;13.40;93.60;;;;;;5064057;28;20057;-70
2021/04/03 11:40:37;;;;;;;16.40;4.43;;;13.60;93.40;;;;;;5065126;28;20059;-71
2021/04/03 11:43:05;;;;;;;18.73;4.05;;;13.80;92.80;;;;;;5071683;28;20559;-72
2021/04/03 11:45:30;;;;;;;17.27;4.35;;;14.00;92.90;;;;;;5064479;28;20028;-71
2021/04/03 11:47:56;;;;;;;15.52;4.57;;;13.90;92.30;;;;;;5062888;28;20027;-70
2021/04/03 11:50:22;;;;;;;18.38;4.03;;;13.50;92.60;;;;;;5069637;28;20032;-70
2021/04/03 11:52:48;;;;;;;16.42;4.70;;;13.40;92.40;;;;;;5062076;28;20471;-71
2021/04/03 11:55:16;;;;;;;25.98;5.28;;;13.50;93.20;;;;;;5065804;28;20083;-70
2021/04/03 11:57:42;;;;;;;20.83;5.07;;;13.90;94.20;;;;;;5066925;28;20029;-71
2021/04/03 12:00:09;;;;;;;25.67;5.55;;;14.30;93.50;;;;;;5076067;28;20141;-71
2021/04/03 12:02:36;;;;;;;24.40;5.15;;;14.00;92.60;;;;;;5076309;28;20020;-71
2021/04/03 12:05:04;;;;;;;21.40;4.97;;;13.70;93.60;;;;;;5069634;28;20029;-71
2021/04/03 12:07:35;;;;;;;21.38;4.25;;;13.60;93.70;;;;;;5071958;28;20028;-72
2021/04/03 12:10:00;;;;;;;18.58;3.95;;;13.70;93.70;;;;;;5074987;28;20055;-71
2021/04/03 12:12:26;;;;;;;21.23;4.20;;;13.60;92.10;;;;;;5081038;28;20052;-71
2021/04/03 12:14:52;;;;;;;17.10;4.85;;;13.70;92.20;;;;;;5070137;28;20108;-70
2021/04/03 12:17:17;;;;;;;23.92;4.28;;;14.00;92.40;;;;;;5061606;28;20084;-70
2021/04/03 12:19:43;;;;;;;18.10;4.38;;;14.10;92.90;;;;;;5068640;28;20036;-70
2021/04/03 12:22:08;;;;;;;19.85;5.85;;;14.20;92.70;;;;;;5070495;28;20047;-70
2021/04/03 12:24:34;;;;;;;16.05;3.90;;;13.90;92.20;;;;;;5073242;28;20025;-71
2021/04/03 12:26:59;;;;;;;20.92;4.30;;;13.60;91.00;;;;;;5071351;28;20027;-71
2021/04/03 12:29:25;;;;;;;11.32;3.45;;;13.40;91.50;;;;;;5068154;28;20028;-70
2021/04/03 12:31:50;;;;;;;12.07;3.15;;;13.40;91.20;;;;;;5069405;28;20028;-70
2021/04/03 12:34:16;;;;;;;14.35;3.90;;;13.60;90.80;;;;;;5063373;28;20697;-70
2021/04/03 12:36:42;;;;;;;11.05;3.95;;;13.70;90.40;;;;;;5073148;28;20078;-71
2021/04/03 12:39:07;;;;;;;17.52;5.05;;;14.00;90.50;;;;;;5071921;28;20598;-70
2021/04/03 12:41:33;;;;;;;17.85;4.47;;;14.20;90.60;;;;;;5065137;28;20172;-71
2021/04/03 12:43:58;;;;;;;16.75;4.10;;;14.50;90.70;;;;;;5075982;28;20028;-70
2021/04/03 12:46:24;;;;;;;13.55;3.80;;;14.50;90.10;;;;;;5068567;28;20671;-71
2021/04/03 12:48:49;;;;;;;15.00;3.35;;;14.30;88.70;;;;;;5069716;28;20042;-70